Startpagina
METAR-TAF:

METAR-TAF

Vliegvelden :

Vliegveld de Kooy

Den Helder, Nederland

breedte: 52-55N, lengte: 004-47E, hoogte: 0 m

Actueel weer

Dit bericht is 24 minuten geleden gemaakt, om 23:25 UTC
Wind 4 kt uit het zuidoosten
Temperatuur 0°C
Vochtigheid 86%
Druk 1007 hPa
Zicht: 7000 m
Geheel bewolkt op 2000 ft
nevel

METAR: EHKD 232325Z AUTO 14004KT 7000 BR OVC020 M00/M02 Q1007 WHT

Tijdstip: 00:49 (23:49 UTC)

Verwachting

Dit bericht is 9 uur en het 52 minuten geleden gemaakt, om 13:57 UTC
Verwachting geldig van 23 om 14 UTC tot 24 om 02 UTC
Wind 5 kt uit het oostnoordoosten
Zicht: 5000 m
Gebroken wolken op 700 ft
Kans 30%
van 23 om 14 UTC tot 23 om 18 UTC
Zicht: 4000 m
Gebroken wolken op 500 ft
nevel
Wijzigt naar
van 23 om 19 UTC tot 23 om 21 UTC
Weinig wolken op 800 ft
Gebroken wolken op 1000 ft

TAF: EHKD 231357Z 2314/2402 06005KT 5000 BKN007 PROB30 2314/2318 4000 BR BKN005 BECMG 2319/2321 FEW008 BKN010

Waarnemingen en weersverwachtingen van meer dan 4000 vliegvelden (METAR en TAF).

De beschikbare stations zijn de gele en rode punten op de kaart.

Ga met uw muis naar het station om de naam te zien.

Klik dan om waarnemingen en weersverwachtingen te zien.

kaart wijzigen: klik op de groene knoppen met een zwart kruis om in te zoomen, op de groene knop met een streepje om uit te zoomen of op de groene pijlen voor aangrenzende kaarten.


METAR-TAF: